createdAt,value
2023-05-07T00:00:41.271Z,5.70
2023-05-07T00:03:42.955Z,4.53
2023-05-07T00:06:44.606Z,4.88
2023-05-07T00:09:46.163Z,4.70
2023-05-07T00:12:47.803Z,5.63
2023-05-07T00:15:49.291Z,5.10
2023-05-07T00:18:51.271Z,4.45
2023-05-07T00:21:54.559Z,4.95
2023-05-07T00:24:56.142Z,4.88
2023-05-07T00:28:03.623Z,4.93
2023-05-07T00:31:05.238Z,5.25
2023-05-07T00:34:07.119Z,5.43
2023-05-07T00:37:09.791Z,5.18
2023-05-07T00:40:11.848Z,4.68
2023-05-07T00:43:13.662Z,4.60
2023-05-07T00:46:16.818Z,4.57
2023-05-07T00:49:19.355Z,5.13
2023-05-07T00:52:22.694Z,5.05
2023-05-07T00:55:24.974Z,4.72
2023-05-07T00:58:26.671Z,5.00
2023-05-07T01:01:28.326Z,4.88
2023-05-07T01:04:29.872Z,4.38
2023-05-07T01:07:32.931Z,4.85
2023-05-07T01:10:34.562Z,4.93
2023-05-07T01:13:37.705Z,5.38
2023-05-07T01:16:41.579Z,5.10
2023-05-07T01:19:45.004Z,5.13
2023-05-07T01:22:46.975Z,5.10
2023-05-07T01:25:56.109Z,5.65
2023-05-07T01:29:00.217Z,5.13
2023-05-07T01:32:03.404Z,8.75
2023-05-07T01:35:08.366Z,7.40
2023-05-07T01:38:10.131Z,7.65
2023-05-07T01:41:12.912Z,6.30
2023-05-07T01:44:16.229Z,6.40
2023-05-07T01:47:17.956Z,7.32
2023-05-07T01:50:20.762Z,7.97
2023-05-07T01:53:22.236Z,7.90
2023-05-07T01:56:24.943Z,7.20
2023-05-07T01:59:26.519Z,6.32
2023-05-07T02:02:28.144Z,7.18
2023-05-07T02:05:31.994Z,7.07
2023-05-07T02:08:38.752Z,6.15
2023-05-07T02:11:40.611Z,5.43
2023-05-07T02:14:42.499Z,5.28
2023-05-07T02:18:05.562Z,6.07
2023-05-07T02:21:07.248Z,5.43
2023-05-07T02:24:08.780Z,5.40
2023-05-07T02:27:10.341Z,5.03
2023-05-07T02:30:13.328Z,5.07
2023-05-07T02:33:15.176Z,5.63
2023-05-07T02:36:17.444Z,4.88
2023-05-07T02:39:34.367Z,5.25
2023-05-07T02:42:35.996Z,5.55
2023-05-07T02:45:38.603Z,5.72
2023-05-07T02:51:43.082Z,5.38
2023-05-07T02:54:50.520Z,4.93
2023-05-07T02:57:52.080Z,5.35
2023-05-07T03:00:55.520Z,5.00
2023-05-07T03:04:08.857Z,5.43
2023-05-07T03:07:10.466Z,5.43
2023-05-07T03:10:12.298Z,5.45
2023-05-07T03:13:13.998Z,5.25
2023-05-07T03:16:16.217Z,5.57
2023-05-07T03:19:17.787Z,5.50
2023-05-07T03:22:19.448Z,5.00
2023-05-07T03:25:21.541Z,5.38
2023-05-07T03:28:23.059Z,5.70
2023-05-07T03:31:32.521Z,5.95
2023-05-07T03:34:36.126Z,5.82
2023-05-07T03:37:39.060Z,5.40
2023-05-07T03:40:41.124Z,5.68
2023-05-07T03:43:42.868Z,6.20
2023-05-07T03:46:46.918Z,6.07
2023-05-07T03:49:49.866Z,5.40
2023-05-07T03:52:51.692Z,5.90
2023-05-07T03:58:57.794Z,6.57
2023-05-07T04:01:59.556Z,6.68
2023-05-07T04:05:03.865Z,5.82
2023-05-07T04:08:06.374Z,6.05
2023-05-07T04:11:14.694Z,6.40
2023-05-07T04:14:16.539Z,6.93
2023-05-07T04:17:18.251Z,7.43
2023-05-07T04:20:19.829Z,7.78
2023-05-07T04:23:26.306Z,6.38
2023-05-07T04:26:29.255Z,8.40
2023-05-07T04:29:31.531Z,7.63
2023-05-07T04:32:33.312Z,8.38
2023-05-07T04:35:35.834Z,7.88
2023-05-07T04:38:39.613Z,7.05
2023-05-07T04:41:41.626Z,7.75
2023-05-07T04:44:46.001Z,7.07
2023-05-07T04:47:48.043Z,7.10
2023-05-07T04:50:50.853Z,6.43
2023-05-07T04:53:53.239Z,6.35
2023-05-07T04:56:55.220Z,5.78
2023-05-07T04:59:57.017Z,6.20
2023-05-07T05:02:58.692Z,6.35
2023-05-07T05:06:00.839Z,5.70
2023-05-07T05:09:05.905Z,6.20
2023-05-07T05:12:10.417Z,6.05
2023-05-07T05:15:13.875Z,5.82
2023-05-07T05:18:15.476Z,5.75
2023-05-07T05:21:17.069Z,6.30
2023-05-07T05:24:21.369Z,6.55
2023-05-07T05:27:23.039Z,6.18
2023-05-07T05:30:24.612Z,6.03
2023-05-07T05:33:27.007Z,6.55
2023-05-07T05:36:29.458Z,7.15
2023-05-07T05:39:32.957Z,6.55
2023-05-07T05:42:34.609Z,6.05
2023-05-07T05:45:36.605Z,6.55
2023-05-07T05:48:38.249Z,6.25
2023-05-07T05:51:41.230Z,5.93
2023-05-07T05:54:43.307Z,6.03
2023-05-07T05:57:45.003Z,5.68
2023-05-07T06:00:47.300Z,5.50
2023-05-07T06:03:49.167Z,6.07
2023-05-07T06:06:51.142Z,5.68
2023-05-07T06:09:53.146Z,5.43
2023-05-07T06:12:55.453Z,6.18
2023-05-07T06:15:57.357Z,6.18
2023-05-07T06:18:58.860Z,6.00
2023-05-07T06:22:02.329Z,5.93
2023-05-07T06:25:05.327Z,6.18
2023-05-07T06:28:07.045Z,6.03
2023-05-07T06:31:18.608Z,5.68
2023-05-07T06:34:26.511Z,6.15
2023-05-07T06:37:28.158Z,5.47
2023-05-07T06:40:38.556Z,5.88
2023-05-07T06:43:40.441Z,6.13
2023-05-07T06:47:00.746Z,6.82
2023-05-07T06:50:02.877Z,5.75
2023-05-07T06:53:07.634Z,5.47
2023-05-07T06:56:09.350Z,6.13
2023-05-07T06:59:11.837Z,6.40
2023-05-07T07:02:17.699Z,6.82
2023-05-07T07:05:20.399Z,6.78
2023-05-07T07:08:23.273Z,6.43
2023-05-07T07:11:25.790Z,7.18
2023-05-07T07:14:27.463Z,5.93
2023-05-07T07:17:29.875Z,6.60
2023-05-07T07:20:31.652Z,6.38
2023-05-07T07:23:33.748Z,6.05
2023-05-07T07:26:35.656Z,5.03
2023-05-07T07:29:37.533Z,5.10
2023-05-07T07:32:39.283Z,5.07
2023-05-07T07:35:40.935Z,5.20
2023-05-07T07:38:42.692Z,5.30
2023-05-07T07:41:44.535Z,4.90
2023-05-07T07:44:47.184Z,5.63
2023-05-07T07:47:51.233Z,5.30
2023-05-07T07:50:53.227Z,5.90
2023-05-07T07:53:55.081Z,5.38
2023-05-07T07:56:57.351Z,5.32
2023-05-07T07:59:59.869Z,5.55
2023-05-07T08:03:04.819Z,4.95
2023-05-07T08:06:11.932Z,5.47
2023-05-07T08:09:13.982Z,4.88
2023-05-07T08:12:17.015Z,5.63
2023-05-07T08:15:18.972Z,5.40
2023-05-07T08:18:20.728Z,5.30
2023-05-07T08:21:23.650Z,5.25
2023-05-07T08:24:25.194Z,5.68
2023-05-07T08:27:27.281Z,5.07
2023-05-07T08:30:28.868Z,4.90
2023-05-07T08:33:30.674Z,5.50
2023-05-07T08:36:32.283Z,5.60
2023-05-07T08:39:33.898Z,5.05
2023-05-07T08:42:38.745Z,5.10
2023-05-07T08:45:41.295Z,5.22
2023-05-07T08:48:45.577Z,5.43
2023-05-07T08:51:50.205Z,4.70
2023-05-07T08:54:51.723Z,5.25
2023-05-07T08:57:54.018Z,4.90
2023-05-07T09:00:56.694Z,5.00
2023-05-07T09:03:59.283Z,5.70
2023-05-07T09:07:06.308Z,5.38
2023-05-07T09:10:11.675Z,5.60
2023-05-07T09:13:15.690Z,5.65
2023-05-07T09:16:17.911Z,5.82
2023-05-07T09:19:25.452Z,5.40
2023-05-07T09:22:32.872Z,5.10
2023-05-07T09:25:39.031Z,5.60
2023-05-07T09:28:48.054Z,6.05
2023-05-07T09:31:50.719Z,6.03
2023-05-07T09:34:53.661Z,5.60
2023-05-07T09:38:03.596Z,5.88
2023-05-07T09:41:10.177Z,6.10
2023-05-07T09:44:33.343Z,5.60
2023-05-07T09:47:40.100Z,6.13
2023-05-07T09:50:50.559Z,6.30
2023-05-07T09:53:55.081Z,5.43
2023-05-07T09:56:59.591Z,6.18
2023-05-07T10:00:07.191Z,7.18
2023-05-07T10:03:23.526Z,6.40
2023-05-07T10:06:31.313Z,6.32
2023-05-07T10:09:39.363Z,5.72
2023-05-07T10:12:43.160Z,6.00
2023-05-07T10:15:53.856Z,6.35
2023-05-07T10:18:58.011Z,6.20
2023-05-07T10:22:06.869Z,6.15
2023-05-07T10:25:21.752Z,6.55
2023-05-07T10:28:26.676Z,7.22
2023-05-07T10:31:56.848Z,8.05
2023-05-07T10:35:03.124Z,10.02
2023-05-07T10:38:05.924Z,9.40
2023-05-07T10:41:11.544Z,9.80
2023-05-07T10:44:32.010Z,9.35
2023-05-07T10:51:28.865Z,8.90
2023-05-07T10:54:39.830Z,8.90
2023-05-07T10:57:45.926Z,8.38
2023-05-07T11:01:03.523Z,7.13
2023-05-07T11:04:15.960Z,6.20
2023-05-07T11:07:45.530Z,6.30
2023-05-07T11:11:15.898Z,6.90
2023-05-07T11:14:41.121Z,6.60
2023-05-07T11:17:56.551Z,6.00
2023-05-07T11:21:00.834Z,6.60
2023-05-07T11:24:23.259Z,6.00
2023-05-07T11:27:35.047Z,6.05
2023-05-07T11:30:36.784Z,5.72
2023-05-07T11:33:40.409Z,5.90
2023-05-07T11:36:46.327Z,6.10
2023-05-07T11:39:55.501Z,5.20
2023-05-07T11:42:56.991Z,5.30
2023-05-07T11:46:08.069Z,5.63
2023-05-07T11:49:09.876Z,5.35
2023-05-07T11:52:14.543Z,5.30
2023-05-07T11:55:19.581Z,5.85
2023-05-07T11:58:26.719Z,5.32
2023-05-07T12:01:28.297Z,5.88
2023-05-07T12:04:31.454Z,5.50
2023-05-07T12:07:35.244Z,5.85
2023-05-07T12:13:43.006Z,5.00
2023-05-07T12:16:46.002Z,5.55
2023-05-07T12:19:48.038Z,5.40
2023-05-07T12:22:51.180Z,5.90
2023-05-07T12:25:52.804Z,5.97
2023-05-07T12:28:54.401Z,6.30
2023-05-07T12:31:55.970Z,5.88
2023-05-07T12:34:57.500Z,5.70
2023-05-07T12:38:05.060Z,6.40
2023-05-07T12:41:08.412Z,6.10
2023-05-07T12:44:09.902Z,6.05
2023-05-07T12:47:11.580Z,5.85
2023-05-07T12:50:15.075Z,6.03
2023-05-07T12:53:16.806Z,5.70
2023-05-07T12:56:18.338Z,5.68
2023-05-07T12:59:19.861Z,6.25
2023-05-07T13:02:21.453Z,6.18
2023-05-07T13:05:22.931Z,6.53
2023-05-07T13:08:45.460Z,6.90
2023-05-07T13:11:46.928Z,6.63
2023-05-07T13:14:48.391Z,6.55
2023-05-07T13:17:50.037Z,7.38
2023-05-07T13:20:52.155Z,7.10
2023-05-07T13:23:53.830Z,6.93
2023-05-07T13:26:55.738Z,7.03
2023-05-07T13:29:57.629Z,6.97
2023-05-07T13:32:59.210Z,6.40
2023-05-07T13:36:01.707Z,6.57
2023-05-07T13:39:04.524Z,6.60
2023-05-07T13:42:06.181Z,7.07
2023-05-07T13:45:08.480Z,6.95
2023-05-07T13:48:09.996Z,6.50
2023-05-07T13:51:11.737Z,7.25
2023-05-07T13:54:13.234Z,6.82
2023-05-07T13:57:14.790Z,6.38
2023-05-07T14:00:17.284Z,6.22
2023-05-07T14:03:20.631Z,6.47
2023-05-07T14:06:22.856Z,6.45
2023-05-07T14:09:24.780Z,6.18
2023-05-07T14:12:26.496Z,6.40
2023-05-07T14:15:28.034Z,7.22
2023-05-07T14:18:29.995Z,6.50
2023-05-07T14:21:31.895Z,6.78
2023-05-07T14:24:38.604Z,7.63
2023-05-07T14:27:40.609Z,6.28
2023-05-07T14:30:42.158Z,5.82
2023-05-07T14:33:43.686Z,5.68
2023-05-07T14:36:45.242Z,5.65
2023-05-07T14:39:49.948Z,5.60
2023-05-07T14:42:52.020Z,6.50
2023-05-07T14:45:53.619Z,5.43
2023-05-07T14:48:55.469Z,5.10
2023-05-07T14:52:00.297Z,5.35
2023-05-07T14:55:01.737Z,5.35
2023-05-07T14:58:03.266Z,5.07
2023-05-07T15:01:04.936Z,5.57
2023-05-07T15:04:06.977Z,6.78
2023-05-07T15:07:08.478Z,6.47
2023-05-07T15:10:10.269Z,6.10
2023-05-07T15:13:15.555Z,6.70
2023-05-07T15:16:17.784Z,6.00
2023-05-07T15:19:19.363Z,6.53
2023-05-07T15:22:22.441Z,5.97
2023-05-07T15:25:24.225Z,6.30
2023-05-07T15:28:26.058Z,6.30
2023-05-07T15:31:31.149Z,6.28
2023-05-07T15:34:32.693Z,6.55
2023-05-07T15:37:34.748Z,5.45
2023-05-07T15:40:38.650Z,5.22
2023-05-07T15:43:46.808Z,5.30
2023-05-07T15:46:48.362Z,5.13
2023-05-07T15:49:49.854Z,5.28
2023-05-07T15:52:51.415Z,5.68
2023-05-07T15:55:52.943Z,5.57
2023-05-07T15:58:54.481Z,5.03
2023-05-07T16:01:56.028Z,5.28
2023-05-07T16:04:57.539Z,5.05
2023-05-07T16:08:00.134Z,4.70
2023-05-07T16:11:01.651Z,3.83
2023-05-07T16:14:03.181Z,4.07
2023-05-07T16:17:04.764Z,3.70
2023-05-07T16:20:08.676Z,4.10
2023-05-07T16:23:10.570Z,4.40
2023-05-07T16:26:14.137Z,4.20
2023-05-07T16:29:23.170Z,4.50
2023-05-07T16:32:24.919Z,4.18
2023-05-07T16:35:26.775Z,4.50
2023-05-07T16:38:31.211Z,4.40
2023-05-07T16:41:32.999Z,3.80
2023-05-07T16:44:34.456Z,4.03
2023-05-07T16:47:36.285Z,4.22
2023-05-07T16:50:38.212Z,4.50
2023-05-07T16:53:39.748Z,4.50
2023-05-07T16:56:42.414Z,4.32
2023-05-07T16:59:43.947Z,4.45
2023-05-07T17:02:46.815Z,4.60
2023-05-07T17:05:48.509Z,4.13
2023-05-07T17:08:51.468Z,4.65
2023-05-07T17:11:53.030Z,4.23
2023-05-07T17:14:54.492Z,4.38
2023-05-07T17:17:56.219Z,4.75
2023-05-07T17:20:57.829Z,4.57
2023-05-07T17:23:59.370Z,4.20
2023-05-07T17:27:00.927Z,4.63
2023-05-07T17:30:02.979Z,4.50
2023-05-07T17:33:19.315Z,4.93
2023-05-07T17:36:22.213Z,4.35
2023-05-07T17:39:24.496Z,5.38
2023-05-07T17:42:26.151Z,4.78
2023-05-07T17:45:27.622Z,4.50
2023-05-07T17:48:29.335Z,4.70
2023-05-07T17:51:36.263Z,4.40
2023-05-07T17:54:43.887Z,4.53
2023-05-07T17:57:45.431Z,4.75
2023-05-07T18:00:49.373Z,4.53
2023-05-07T18:06:53.363Z,5.03
2023-05-07T18:09:54.979Z,4.95
2023-05-07T18:12:56.639Z,5.13
2023-05-07T18:15:58.128Z,5.07
2023-05-07T18:19:00.720Z,5.25
2023-05-07T18:22:03.059Z,4.78
2023-05-07T18:25:05.002Z,5.00
2023-05-07T18:28:06.506Z,5.13
2023-05-07T18:31:08.098Z,4.32
2023-05-07T18:34:10.430Z,4.78
2023-05-07T18:37:11.925Z,4.57
2023-05-07T18:40:13.811Z,4.50
2023-05-07T18:43:15.602Z,4.32
2023-05-07T18:46:17.053Z,5.10
2023-05-07T18:49:18.795Z,4.72
2023-05-07T18:52:21.975Z,4.32
2023-05-07T18:55:23.547Z,4.43
2023-05-07T18:58:25.102Z,4.93
2023-05-07T19:01:26.744Z,4.45
2023-05-07T19:04:29.951Z,4.82
2023-05-07T19:07:31.757Z,5.10
2023-05-07T19:10:33.278Z,4.80
2023-05-07T19:13:34.817Z,6.15
2023-05-07T19:16:36.976Z,5.18
2023-05-07T19:19:38.634Z,5.30
2023-05-07T19:22:42.740Z,5.70
2023-05-07T19:25:44.249Z,5.00
2023-05-07T19:28:48.462Z,5.10
2023-05-07T19:31:58.057Z,5.30
2023-05-07T19:34:59.678Z,4.82
2023-05-07T19:38:02.021Z,5.43
2023-05-07T19:41:03.560Z,5.30
2023-05-07T19:44:05.066Z,5.57
2023-05-07T19:47:06.826Z,5.63
2023-05-07T19:50:08.770Z,5.35
2023-05-07T19:53:10.835Z,5.95
2023-05-07T19:56:12.691Z,4.97
2023-05-07T19:59:14.345Z,4.97
2023-05-07T20:02:16.547Z,5.75
2023-05-07T20:05:18.158Z,6.13
2023-05-07T20:08:19.737Z,6.68
2023-05-07T20:11:21.731Z,5.93
2023-05-07T20:14:23.314Z,5.50
2023-05-07T20:17:24.879Z,6.00
2023-05-07T20:20:26.326Z,5.50
2023-05-07T20:23:27.876Z,6.38
2023-05-07T20:26:29.379Z,10.20
2023-05-07T20:29:31.145Z,10.07
2023-05-07T20:32:32.898Z,8.15
2023-05-07T20:35:34.446Z,6.47
2023-05-07T20:38:36.023Z,6.50
2023-05-07T20:41:37.697Z,5.63
2023-05-07T20:44:39.156Z,5.60
2023-05-07T20:47:41.184Z,6.22
2023-05-07T20:50:42.695Z,6.20
2023-05-07T20:53:46.138Z,6.10
2023-05-07T20:56:49.156Z,6.13
2023-05-07T20:59:50.788Z,5.00
2023-05-07T21:02:53.273Z,5.55
2023-05-07T21:05:56.566Z,5.75
2023-05-07T21:08:58.042Z,5.32
2023-05-07T21:11:59.601Z,5.32
2023-05-07T21:15:01.112Z,6.20
2023-05-07T21:18:02.846Z,5.38
2023-05-07T21:21:09.158Z,5.97
2023-05-07T21:24:11.416Z,6.32
2023-05-07T21:27:12.972Z,6.75
2023-05-07T21:30:15.256Z,5.78
2023-05-07T21:33:16.948Z,6.07
2023-05-07T21:36:18.877Z,5.72
2023-05-07T21:39:22.440Z,5.63
2023-05-07T21:42:25.226Z,5.68
2023-05-07T21:45:29.830Z,6.28
2023-05-07T21:48:31.337Z,6.07
2023-05-07T21:51:34.462Z,5.95
2023-05-07T21:54:35.934Z,6.30
2023-05-07T21:57:37.749Z,5.88
2023-05-07T22:00:39.315Z,5.75
2023-05-07T22:03:41.052Z,4.18
2023-05-07T22:06:42.605Z,3.65
2023-05-07T22:09:44.100Z,3.88
2023-05-07T22:12:45.642Z,5.57
2023-05-07T22:15:56.775Z,5.70
2023-05-07T22:18:59.324Z,4.38
2023-05-07T22:22:00.775Z,6.57
2023-05-07T22:25:02.327Z,5.05
2023-05-07T22:28:04.004Z,5.60
2023-05-07T22:31:05.592Z,3.80
2023-05-07T22:34:07.013Z,4.00
2023-05-07T22:37:08.632Z,3.60
2023-05-07T22:40:10.767Z,3.85
2023-05-07T22:43:12.462Z,4.05
2023-05-07T22:46:14.004Z,4.05
2023-05-07T22:49:15.535Z,3.70
2023-05-07T22:52:17.304Z,3.75
2023-05-07T22:55:18.867Z,3.67
2023-05-07T22:58:20.450Z,3.80
2023-05-07T23:01:22.026Z,3.45
2023-05-07T23:04:23.556Z,3.55
2023-05-07T23:07:25.043Z,3.72
2023-05-07T23:10:26.567Z,3.70
2023-05-07T23:13:28.246Z,3.28
2023-05-07T23:16:30.217Z,3.47
2023-05-07T23:19:31.785Z,3.13
2023-05-07T23:22:33.267Z,3.45
2023-05-07T23:25:34.742Z,3.42
2023-05-07T23:28:36.192Z,2.90
2023-05-07T23:31:37.795Z,4.00
2023-05-07T23:34:39.279Z,4.13
2023-05-07T23:37:41.247Z,3.20
2023-05-07T23:40:42.821Z,3.33
2023-05-07T23:43:44.287Z,3.65
2023-05-07T23:46:46.161Z,3.92
2023-05-07T23:49:48.050Z,3.60
2023-05-07T23:52:49.562Z,3.88
2023-05-07T23:55:51.104Z,4.35
2023-05-07T23:58:52.611Z,3.63
